sensor_id;sensor_type;location;lat;lon;timestamp;P1;durP1;ratioP1;P2;durP2;ratioP2
57605;SDS011;43430;48.204;11.556;2023-02-22T00:00:14;11.18;;;3.72;;
57605;SDS011;43430;48.204;11.556;2023-02-22T00:02:50;8.02;;;3.38;;
57605;SDS011;43430;48.204;11.556;2023-02-22T00:05:18;8.68;;;3.10;;
57605;SDS011;43430;48.204;11.556;2023-02-22T00:07:44;11.75;;;3.78;;
57605;SDS011;43430;48.204;11.556;2023-02-22T00:10:11;8.93;;;3.67;;
57605;SDS011;43430;48.204;11.556;2023-02-22T00:12:41;11.18;;;3.47;;
57605;SDS011;43430;48.204;11.556;2023-02-22T00:15:07;9.50;;;3.40;;
57605;SDS011;43430;48.204;11.556;2023-02-22T00:17:34;9.20;;;3.72;;
57605;SDS011;43430;48.204;11.556;2023-02-22T00:20:00;10.05;;;3.67;;
57605;SDS011;43430;48.204;11.556;2023-02-22T00:22:26;9.27;;;3.70;;
57605;SDS011;43430;48.204;11.556;2023-02-22T00:24:51;12.30;;;3.53;;
57605;SDS011;43430;48.204;11.556;2023-02-22T00:27:16;9.40;;;3.65;;
57605;SDS011;43430;48.204;11.556;2023-02-22T00:29:45;9.93;;;3.25;;
57605;SDS011;43430;48.204;11.556;2023-02-22T00:32:11;8.77;;;3.35;;
57605;SDS011;43430;48.204;11.556;2023-02-22T00:34:37;10.88;;;3.53;;
57605;SDS011;43430;48.204;11.556;2023-02-22T00:37:02;10.02;;;3.50;;
57605;SDS011;43430;48.204;11.556;2023-02-22T00:39:28;7.93;;;3.53;;
57605;SDS011;43430;48.204;11.556;2023-02-22T00:41:54;6.65;;;3.00;;
57605;SDS011;43430;48.204;11.556;2023-02-22T00:44:20;9.70;;;3.40;;
57605;SDS011;43430;48.204;11.556;2023-02-22T00:46:46;6.22;;;3.05;;
57605;SDS011;43430;48.204;11.556;2023-02-22T00:49:11;8.45;;;3.20;;
57605;SDS011;43430;48.204;11.556;2023-02-22T00:51:36;7.32;;;3.03;;
57605;SDS011;43430;48.204;11.556;2023-02-22T00:54:02;10.00;;;3.60;;
57605;SDS011;43430;48.204;11.556;2023-02-22T00:56:30;10.45;;;3.75;;
57605;SDS011;43430;48.204;11.556;2023-02-22T00:58:58;6.75;;;3.05;;
57605;SDS011;43430;48.204;11.556;2023-02-22T01:01:24;10.50;;;4.22;;
57605;SDS011;43430;48.204;11.556;2023-02-22T01:03:51;9.07;;;3.92;;
57605;SDS011;43430;48.204;11.556;2023-02-22T01:06:16;8.50;;;3.47;;
57605;SDS011;43430;48.204;11.556;2023-02-22T01:08:43;7.65;;;3.40;;
57605;SDS011;43430;48.204;11.556;2023-02-22T01:11:12;8.30;;;3.50;;
57605;SDS011;43430;48.204;11.556;2023-02-22T01:13:39;10.20;;;3.90;;
57605;SDS011;43430;48.204;11.556;2023-02-22T01:16:04;8.60;;;3.40;;
57605;SDS011;43430;48.204;11.556;2023-02-22T01:18:34;7.22;;;3.28;;
57605;SDS011;43430;48.204;11.556;2023-02-22T01:21:01;10.27;;;3.83;;
57605;SDS011;43430;48.204;11.556;2023-02-22T01:23:27;11.15;;;3.28;;
57605;SDS011;43430;48.204;11.556;2023-02-22T01:25:52;8.45;;;3.40;;
57605;SDS011;43430;48.204;11.556;2023-02-22T01:28:18;9.35;;;3.22;;
57605;SDS011;43430;48.204;11.556;2023-02-22T01:30:43;9.05;;;3.28;;
57605;SDS011;43430;48.204;11.556;2023-02-22T01:33:09;9.32;;;3.90;;
57605;SDS011;43430;48.204;11.556;2023-02-22T01:35:37;7.43;;;2.92;;
57605;SDS011;43430;48.204;11.556;2023-02-22T01:38:07;10.95;;;4.07;;
57605;SDS011;43430;48.204;11.556;2023-02-22T01:40:40;8.02;;;3.63;;
57605;SDS011;43430;48.204;11.556;2023-02-22T01:43:23;8.63;;;3.28;;
57605;SDS011;43430;48.204;11.556;2023-02-22T01:51:15;8.88;;;3.45;;
57605;SDS011;43430;48.204;11.556;2023-02-22T01:56:15;8.05;;;3.33;;
57605;SDS011;43430;48.204;11.556;2023-02-22T01:58:45;8.55;;;3.05;;
57605;SDS011;43430;48.204;11.556;2023-02-22T02:01:15;9.55;;;3.33;;
57605;SDS011;43430;48.204;11.556;2023-02-22T02:03:43;6.68;;;3.15;;
57605;SDS011;43430;48.204;11.556;2023-02-22T02:06:11;8.07;;;3.30;;
57605;SDS011;43430;48.204;11.556;2023-02-22T02:11:14;7.85;;;3.20;;
57605;SDS011;43430;48.204;11.556;2023-02-22T02:13:41;7.15;;;3.05;;
57605;SDS011;43430;48.204;11.556;2023-02-22T02:16:07;6.38;;;2.88;;
57605;SDS011;43430;48.204;11.556;2023-02-22T02:18:32;10.57;;;3.28;;
57605;SDS011;43430;48.204;11.556;2023-02-22T02:35:33;7.50;;;2.72;;
57605;SDS011;43430;48.204;11.556;2023-02-22T02:38:03;9.93;;;3.15;;
57605;SDS011;43430;48.204;11.556;2023-02-22T02:40:56;8.68;;;2.92;;
57605;SDS011;43430;48.204;11.556;2023-02-22T02:46:50;6.95;;;3.10;;
57605;SDS011;43430;48.204;11.556;2023-02-22T02:49:21;8.57;;;2.45;;
57605;SDS011;43430;48.204;11.556;2023-02-22T02:51:52;7.60;;;3.05;;
57605;SDS011;43430;48.204;11.556;2023-02-22T02:54:20;6.07;;;2.28;;
57605;SDS011;43430;48.204;11.556;2023-02-22T02:56:47;9.32;;;2.92;;
57605;SDS011;43430;48.204;11.556;2023-02-22T02:59:23;9.80;;;2.92;;
57605;SDS011;43430;48.204;11.556;2023-02-22T03:02:16;7.25;;;2.72;;
57605;SDS011;43430;48.204;11.556;2023-02-22T03:05:10;6.53;;;2.90;;
57605;SDS011;43430;48.204;11.556;2023-02-22T03:10:49;5.80;;;2.25;;
57605;SDS011;43430;48.204;11.556;2023-02-22T03:18:52;7.15;;;2.28;;
57605;SDS011;43430;48.204;11.556;2023-02-22T03:27:03;7.07;;;2.17;;
57605;SDS011;43430;48.204;11.556;2023-02-22T03:29:33;6.43;;;2.30;;
57605;SDS011;43430;48.204;11.556;2023-02-22T03:32:09;5.15;;;1.95;;
57605;SDS011;43430;48.204;11.556;2023-02-22T03:34:41;6.40;;;2.60;;
57605;SDS011;43430;48.204;11.556;2023-02-22T03:37:16;6.50;;;2.60;;
57605;SDS011;43430;48.204;11.556;2023-02-22T03:39:43;4.80;;;2.00;;
57605;SDS011;43430;48.204;11.556;2023-02-22T03:42:13;6.75;;;1.95;;
57605;SDS011;43430;48.204;11.556;2023-02-22T03:44:47;5.53;;;2.75;;
57605;SDS011;43430;48.204;11.556;2023-02-22T03:47:15;5.82;;;2.40;;
57605;SDS011;43430;48.204;11.556;2023-02-22T03:49:50;7.88;;;3.22;;
57605;SDS011;43430;48.204;11.556;2023-02-22T03:52:19;7.85;;;2.95;;
57605;SDS011;43430;48.204;11.556;2023-02-22T03:54:48;9.73;;;3.78;;
57605;SDS011;43430;48.204;11.556;2023-02-22T03:57:24;9.90;;;3.72;;
57605;SDS011;43430;48.204;11.556;2023-02-22T03:59:52;9.70;;;4.32;;
57605;SDS011;43430;48.204;11.556;2023-02-22T04:02:18;8.07;;;3.55;;
57605;SDS011;43430;48.204;11.556;2023-02-22T04:04:44;9.70;;;3.88;;
57605;SDS011;43430;48.204;11.556;2023-02-22T04:07:10;10.05;;;3.85;;
57605;SDS011;43430;48.204;11.556;2023-02-22T04:09:36;6.80;;;2.92;;
57605;SDS011;43430;48.204;11.556;2023-02-22T04:12:01;9.05;;;3.65;;
57605;SDS011;43430;48.204;11.556;2023-02-22T04:14:28;9.65;;;3.90;;
57605;SDS011;43430;48.204;11.556;2023-02-22T04:16:54;8.45;;;3.50;;
57605;SDS011;43430;48.204;11.556;2023-02-22T04:19:19;9.57;;;3.53;;
57605;SDS011;43430;48.204;11.556;2023-02-22T04:21:45;6.45;;;3.30;;
57605;SDS011;43430;48.204;11.556;2023-02-22T04:24:10;7.85;;;4.35;;
57605;SDS011;43430;48.204;11.556;2023-02-22T04:26:36;9.45;;;3.92;;
57605;SDS011;43430;48.204;11.556;2023-02-22T04:29:01;8.15;;;3.00;;
57605;SDS011;43430;48.204;11.556;2023-02-22T04:31:28;10.38;;;3.80;;
57605;SDS011;43430;48.204;11.556;2023-02-22T04:33:54;10.10;;;4.18;;
57605;SDS011;43430;48.204;11.556;2023-02-22T04:36:19;8.10;;;3.40;;
57605;SDS011;43430;48.204;11.556;2023-02-22T04:38:45;6.30;;;3.20;;
57605;SDS011;43430;48.204;11.556;2023-02-22T04:41:11;8.45;;;3.40;;
57605;SDS011;43430;48.204;11.556;2023-02-22T04:43:37;9.20;;;3.85;;
57605;SDS011;43430;48.204;11.556;2023-02-22T04:46:02;11.93;;;4.25;;
57605;SDS011;43430;48.204;11.556;2023-02-22T04:48:28;8.70;;;3.55;;
57605;SDS011;43430;48.204;11.556;2023-02-22T04:50:54;8.38;;;3.70;;
57605;SDS011;43430;48.204;11.556;2023-02-22T04:53:19;9.65;;;3.90;;
57605;SDS011;43430;48.204;11.556;2023-02-22T04:55:45;10.45;;;3.80;;
57605;SDS011;43430;48.204;11.556;2023-02-22T04:58:11;7.90;;;3.63;;
57605;SDS011;43430;48.204;11.556;2023-02-22T05:00:36;7.88;;;3.65;;
57605;SDS011;43430;48.204;11.556;2023-02-22T05:03:02;9.52;;;3.30;;
57605;SDS011;43430;48.204;11.556;2023-02-22T05:05:27;13.73;;;3.78;;
57605;SDS011;43430;48.204;11.556;2023-02-22T05:07:53;9.18;;;3.70;;
57605;SDS011;43430;48.204;11.556;2023-02-22T05:10:18;11.32;;;5.00;;
57605;SDS011;43430;48.204;11.556;2023-02-22T05:12:44;14.07;;;4.18;;
57605;SDS011;43430;48.204;11.556;2023-02-22T05:15:09;8.90;;;4.28;;
57605;SDS011;43430;48.204;11.556;2023-02-22T05:17:35;10.75;;;3.65;;
57605;SDS011;43430;48.204;11.556;2023-02-22T05:20:01;9.65;;;3.83;;
57605;SDS011;43430;48.204;11.556;2023-02-22T05:22:28;9.15;;;4.47;;
57605;SDS011;43430;48.204;11.556;2023-02-22T05:24:54;8.90;;;3.72;;
57605;SDS011;43430;48.204;11.556;2023-02-22T05:27:20;8.63;;;4.05;;
57605;SDS011;43430;48.204;11.556;2023-02-22T05:29:46;8.13;;;4.10;;
57605;SDS011;43430;48.204;11.556;2023-02-22T05:32:11;11.23;;;4.00;;
57605;SDS011;43430;48.204;11.556;2023-02-22T05:34:37;11.52;;;4.10;;
57605;SDS011;43430;48.204;11.556;2023-02-22T05:37:03;10.45;;;4.13;;
57605;SDS011;43430;48.204;11.556;2023-02-22T05:39:29;9.40;;;4.70;;
57605;SDS011;43430;48.204;11.556;2023-02-22T05:41:55;8.02;;;3.97;;
57605;SDS011;43430;48.204;11.556;2023-02-22T05:44:20;9.15;;;4.95;;
57605;SDS011;43430;48.204;11.556;2023-02-22T05:46:46;10.93;;;4.65;;
57605;SDS011;43430;48.204;11.556;2023-02-22T05:49:11;12.27;;;4.28;;
57605;SDS011;43430;48.204;11.556;2023-02-22T05:51:36;10.90;;;3.83;;
57605;SDS011;43430;48.204;11.556;2023-02-22T05:54:02;7.75;;;3.25;;
57605;SDS011;43430;48.204;11.556;2023-02-22T05:56:28;8.93;;;3.83;;
57605;SDS011;43430;48.204;11.556;2023-02-22T05:58:54;9.50;;;4.15;;
57605;SDS011;43430;48.204;11.556;2023-02-22T06:01:21;9.32;;;4.07;;
57605;SDS011;43430;48.204;11.556;2023-02-22T06:03:50;11.10;;;4.25;;
57605;SDS011;43430;48.204;11.556;2023-02-22T06:06:16;12.13;;;4.20;;
57605;SDS011;43430;48.204;11.556;2023-02-22T06:08:42;9.05;;;4.13;;
57605;SDS011;43430;48.204;11.556;2023-02-22T06:11:08;11.77;;;4.45;;
57605;SDS011;43430;48.204;11.556;2023-02-22T06:13:34;11.60;;;4.38;;
57605;SDS011;43430;48.204;11.556;2023-02-22T06:16:00;11.68;;;3.90;;
57605;SDS011;43430;48.204;11.556;2023-02-22T06:18:26;11.52;;;3.88;;
57605;SDS011;43430;48.204;11.556;2023-02-22T06:20:54;10.82;;;3.80;;
57605;SDS011;43430;48.204;11.556;2023-02-22T06:23:19;10.25;;;4.00;;
57605;SDS011;43430;48.204;11.556;2023-02-22T06:25:45;10.50;;;4.25;;
57605;SDS011;43430;48.204;11.556;2023-02-22T06:28:10;10.55;;;4.28;;
57605;SDS011;43430;48.204;11.556;2023-02-22T06:30:35;8.30;;;3.50;;
57605;SDS011;43430;48.204;11.556;2023-02-22T06:33:01;8.85;;;4.00;;
57605;SDS011;43430;48.204;11.556;2023-02-22T06:35:26;13.63;;;4.18;;
57605;SDS011;43430;48.204;11.556;2023-02-22T06:37:51;10.77;;;3.42;;
57605;SDS011;43430;48.204;11.556;2023-02-22T06:40:18;12.90;;;3.67;;
57605;SDS011;43430;48.204;11.556;2023-02-22T06:42:45;10.05;;;3.97;;
57605;SDS011;43430;48.204;11.556;2023-02-22T06:45:12;11.02;;;3.75;;
57605;SDS011;43430;48.204;11.556;2023-02-22T06:47:39;10.90;;;4.03;;
57605;SDS011;43430;48.204;11.556;2023-02-22T06:50:05;8.38;;;3.53;;
57605;SDS011;43430;48.204;11.556;2023-02-22T06:52:32;8.50;;;3.30;;
57605;SDS011;43430;48.204;11.556;2023-02-22T06:54:57;7.32;;;3.75;;
57605;SDS011;43430;48.204;11.556;2023-02-22T06:57:22;11.40;;;4.13;;
57605;SDS011;43430;48.204;11.556;2023-02-22T06:59:49;9.60;;;3.83;;
57605;SDS011;43430;48.204;11.556;2023-02-22T07:02:14;9.73;;;4.10;;
57605;SDS011;43430;48.204;11.556;2023-02-22T07:04:39;8.95;;;4.35;;
57605;SDS011;43430;48.204;11.556;2023-02-22T07:07:05;13.10;;;4.20;;
57605;SDS011;43430;48.204;11.556;2023-02-22T07:09:31;7.25;;;3.83;;
57605;SDS011;43430;48.204;11.556;2023-02-22T07:11:56;15.50;;;4.15;;
57605;SDS011;43430;48.204;11.556;2023-02-22T07:14:21;9.60;;;4.00;;
57605;SDS011;43430;48.204;11.556;2023-02-22T07:16:47;7.75;;;3.42;;
57605;SDS011;43430;48.204;11.556;2023-02-22T07:19:12;8.32;;;2.65;;
57605;SDS011;43430;48.204;11.556;2023-02-22T07:21:38;12.45;;;2.65;;
57605;SDS011;43430;48.204;11.556;2023-02-22T07:24:03;9.93;;;2.83;;
57605;SDS011;43430;48.204;11.556;2023-02-22T07:26:29;10.45;;;2.33;;
57605;SDS011;43430;48.204;11.556;2023-02-22T07:28:54;5.13;;;2.35;;
57605;SDS011;43430;48.204;11.556;2023-02-22T07:31:20;10.65;;;3.05;;
57605;SDS011;43430;48.204;11.556;2023-02-22T07:33:45;10.60;;;2.65;;
57605;SDS011;43430;48.204;11.556;2023-02-22T07:36:11;10.68;;;2.70;;
57605;SDS011;43430;48.204;11.556;2023-02-22T07:38:41;9.43;;;2.28;;
57605;SDS011;43430;48.204;11.556;2023-02-22T07:41:08;9.23;;;2.42;;
57605;SDS011;43430;48.204;11.556;2023-02-22T07:43:33;7.88;;;2.45;;
57605;SDS011;43430;48.204;11.556;2023-02-22T07:45:59;9.52;;;2.22;;
57605;SDS011;43430;48.204;11.556;2023-02-22T07:48:27;11.95;;;2.35;;
57605;SDS011;43430;48.204;11.556;2023-02-22T07:50:54;13.48;;;3.08;;
57605;SDS011;43430;48.204;11.556;2023-02-22T07:53:29;13.07;;;2.97;;
57605;SDS011;43430;48.204;11.556;2023-02-22T07:55:59;10.13;;;2.75;;
57605;SDS011;43430;48.204;11.556;2023-02-22T07:58:26;7.50;;;2.33;;
57605;SDS011;43430;48.204;11.556;2023-02-22T08:00:53;10.13;;;2.95;;
57605;SDS011;43430;48.204;11.556;2023-02-22T08:03:19;12.75;;;2.65;;
57605;SDS011;43430;48.204;11.556;2023-02-22T08:05:47;12.93;;;2.38;;
57605;SDS011;43430;48.204;11.556;2023-02-22T08:08:14;4.68;;;1.38;;
57605;SDS011;43430;48.204;11.556;2023-02-22T08:10:40;9.93;;;1.58;;
57605;SDS011;43430;48.204;11.556;2023-02-22T08:13:06;5.28;;;1.25;;
57605;SDS011;43430;48.204;11.556;2023-02-22T08:15:35;5.90;;;1.55;;
57605;SDS011;43430;48.204;11.556;2023-02-22T08:18:03;6.43;;;1.23;;
57605;SDS011;43430;48.204;11.556;2023-02-22T08:20:33;5.55;;;1.77;;
57605;SDS011;43430;48.204;11.556;2023-02-22T08:22:59;9.05;;;2.10;;
57605;SDS011;43430;48.204;11.556;2023-02-22T08:25:26;6.20;;;2.25;;
57605;SDS011;43430;48.204;11.556;2023-02-22T08:28:00;7.20;;;2.30;;
57605;SDS011;43430;48.204;11.556;2023-02-22T08:30:29;7.10;;;2.30;;
57605;SDS011;43430;48.204;11.556;2023-02-22T08:32:55;6.13;;;1.98;;
57605;SDS011;43430;48.204;11.556;2023-02-22T08:35:22;4.18;;;2.00;;
57605;SDS011;43430;48.204;11.556;2023-02-22T08:37:48;12.35;;;2.40;;
57605;SDS011;43430;48.204;11.556;2023-02-22T08:40:17;5.00;;;2.08;;
57605;SDS011;43430;48.204;11.556;2023-02-22T08:42:45;6.32;;;1.42;;
57605;SDS011;43430;48.204;11.556;2023-02-22T08:45:11;6.30;;;1.95;;
57605;SDS011;43430;48.204;11.556;2023-02-22T08:47:37;5.72;;;1.02;;
57605;SDS011;43430;48.204;11.556;2023-02-22T08:50:03;4.03;;;1.00;;
57605;SDS011;43430;48.204;11.556;2023-02-22T08:52:29;8.20;;;1.23;;
57605;SDS011;43430;48.204;11.556;2023-02-22T08:54:55;6.20;;;0.93;;
57605;SDS011;43430;48.204;11.556;2023-02-22T08:57:21;6.13;;;0.80;;
57605;SDS011;43430;48.204;11.556;2023-02-22T08:59:46;5.97;;;1.17;;
57605;SDS011;43430;48.204;11.556;2023-02-22T09:02:16;2.85;;;0.65;;
57605;SDS011;43430;48.204;11.556;2023-02-22T09:04:43;3.38;;;0.90;;
57605;SDS011;43430;48.204;11.556;2023-02-22T09:07:09;2.60;;;0.90;;
57605;SDS011;43430;48.204;11.556;2023-02-22T09:09:35;12.85;;;1.10;;
57605;SDS011;43430;48.204;11.556;2023-02-22T09:12:01;3.35;;;0.50;;
57605;SDS011;43430;48.204;11.556;2023-02-22T09:14:26;3.53;;;1.00;;
57605;SDS011;43430;48.204;11.556;2023-02-22T09:16:52;3.22;;;0.70;;
57605;SDS011;43430;48.204;11.556;2023-02-22T09:19:17;1.92;;;0.50;;
57605;SDS011;43430;48.204;11.556;2023-02-22T09:21:43;2.55;;;0.70;;
57605;SDS011;43430;48.204;11.556;2023-02-22T09:24:08;3.95;;;0.55;;
57605;SDS011;43430;48.204;11.556;2023-02-22T09:26:34;2.55;;;0.80;;
57605;SDS011;43430;48.204;11.556;2023-02-22T09:29:03;3.38;;;0.60;;
57605;SDS011;43430;48.204;11.556;2023-02-22T09:31:33;6.40;;;0.60;;
57605;SDS011;43430;48.204;11.556;2023-02-22T09:34:00;5.63;;;0.60;;
57605;SDS011;43430;48.204;11.556;2023-02-22T09:36:25;1.80;;;0.65;;
57605;SDS011;43430;48.204;11.556;2023-02-22T09:38:51;5.32;;;0.70;;
57605;SDS011;43430;48.204;11.556;2023-02-22T09:41:23;2.17;;;0.50;;
57605;SDS011;43430;48.204;11.556;2023-02-22T09:46:44;4.38;;;0.88;;
57605;SDS011;43430;48.204;11.556;2023-02-22T09:51:56;5.75;;;0.95;;
57605;SDS011;43430;48.204;11.556;2023-02-22T09:56:52;7.35;;;0.80;;
57605;SDS011;43430;48.204;11.556;2023-02-22T09:59:23;5.57;;;1.23;;
57605;SDS011;43430;48.204;11.556;2023-02-22T10:07:17;6.85;;;0.93;;
57605;SDS011;43430;48.204;11.556;2023-02-22T10:09:50;4.97;;;1.05;;
57605;SDS011;43430;48.204;11.556;2023-02-22T10:13:24;4.65;;;0.50;;
57605;SDS011;43430;48.204;11.556;2023-02-22T10:18:16;2.17;;;0.63;;
57605;SDS011;43430;48.204;11.556;2023-02-22T10:23:33;6.00;;;1.33;;
57605;SDS011;43430;48.204;11.556;2023-02-22T10:26:15;4.40;;;0.75;;
57605;SDS011;43430;48.204;11.556;2023-02-22T10:29:07;3.88;;;0.85;;
57605;SDS011;43430;48.204;11.556;2023-02-22T10:31:44;5.80;;;0.90;;
57605;SDS011;43430;48.204;11.556;2023-02-22T10:34:15;7.38;;;1.10;;
57605;SDS011;43430;48.204;11.556;2023-02-22T10:36:46;2.03;;;0.68;;
57605;SDS011;43430;48.204;11.556;2023-02-22T10:39:19;2.65;;;0.80;;
57605;SDS011;43430;48.204;11.556;2023-02-22T10:42:02;5.97;;;0.88;;
57605;SDS011;43430;48.204;11.556;2023-02-22T10:44:37;3.92;;;0.90;;
57605;SDS011;43430;48.204;11.556;2023-02-22T10:47:07;5.30;;;0.82;;
57605;SDS011;43430;48.204;11.556;2023-02-22T10:49:40;7.68;;;0.60;;
57605;SDS011;43430;48.204;11.556;2023-02-22T10:52:12;3.70;;;0.70;;
57605;SDS011;43430;48.204;11.556;2023-02-22T10:54:53;4.35;;;0.63;;
57605;SDS011;43430;48.204;11.556;2023-02-22T10:57:22;1.48;;;0.40;;
57605;SDS011;43430;48.204;11.556;2023-02-22T10:59:51;1.90;;;0.82;;
57605;SDS011;43430;48.204;11.556;2023-02-22T11:02:17;5.30;;;0.73;;
57605;SDS011;43430;48.204;11.556;2023-02-22T11:04:49;4.07;;;0.77;;
57605;SDS011;43430;48.204;11.556;2023-02-22T11:07:23;4.18;;;0.95;;
57605;SDS011;43430;48.204;11.556;2023-02-22T11:12:25;2.45;;;0.77;;
57605;SDS011;43430;48.204;11.556;2023-02-22T11:17:49;6.93;;;0.95;;
57605;SDS011;43430;48.204;11.556;2023-02-22T11:20:20;3.67;;;0.50;;
57605;SDS011;43430;48.204;11.556;2023-02-22T11:22:54;5.80;;;1.08;;
57605;SDS011;43430;48.204;11.556;2023-02-22T11:25:25;2.28;;;0.73;;
57605;SDS011;43430;48.204;11.556;2023-02-22T11:27:56;4.95;;;0.68;;
57605;SDS011;43430;48.204;11.556;2023-02-22T11:30:32;5.45;;;1.00;;
57605;SDS011;43430;48.204;11.556;2023-02-22T11:38:21;3.25;;;0.50;;
57605;SDS011;43430;48.204;11.556;2023-02-22T11:43:41;3.75;;;0.60;;
57605;SDS011;43430;48.204;11.556;2023-02-22T11:46:21;3.90;;;0.60;;
57605;SDS011;43430;48.204;11.556;2023-02-22T11:49:00;3.20;;;0.60;;
57605;SDS011;43430;48.204;11.556;2023-02-22T11:54:16;3.17;;;0.60;;
57605;SDS011;43430;48.204;11.556;2023-02-22T11:57:11;4.65;;;0.50;;
57605;SDS011;43430;48.204;11.556;2023-02-22T12:07:53;6.93;;;1.00;;
57605;SDS011;43430;48.204;11.556;2023-02-22T12:16:55;2.65;;;0.60;;
57605;SDS011;43430;48.204;11.556;2023-02-22T12:19:46;3.58;;;0.55;;
57605;SDS011;43430;48.204;11.556;2023-02-22T12:22:17;4.78;;;0.68;;
57605;SDS011;43430;48.204;11.556;2023-02-22T12:25:32;2.33;;;0.50;;
57605;SDS011;43430;48.204;11.556;2023-02-22T12:27:50;3.10;;;0.80;;
57605;SDS011;43430;48.204;11.556;2023-02-22T12:30:21;2.05;;;0.60;;
57605;SDS011;43430;48.204;11.556;2023-02-22T12:32:54;2.63;;;0.50;;
57605;SDS011;43430;48.204;11.556;2023-02-22T12:40:53;3.30;;;0.43;;
57605;SDS011;43430;48.204;11.556;2023-02-22T12:46:19;1.95;;;0.50;;
57605;SDS011;43430;48.204;11.556;2023-02-22T12:54:42;0.93;;;0.40;;
57605;SDS011;43430;48.204;11.556;2023-02-22T12:56:58;2.30;;;0.30;;
57605;SDS011;43430;48.204;11.556;2023-02-22T12:59:35;2.45;;;0.55;;
57605;SDS011;43430;48.204;11.556;2023-02-22T13:04:39;2.30;;;0.20;;
57605;SDS011;43430;48.204;11.556;2023-02-22T13:07:17;1.48;;;0.30;;
57605;SDS011;43430;48.204;11.556;2023-02-22T13:09:55;1.35;;;0.28;;
57605;SDS011;43430;48.204;11.556;2023-02-22T13:20:33;3.08;;;0.43;;
57605;SDS011;43430;48.204;11.556;2023-02-22T13:23:13;4.97;;;0.60;;
57605;SDS011;43430;48.204;11.556;2023-02-22T13:28:41;2.15;;;0.50;;
57605;SDS011;43430;48.204;11.556;2023-02-22T13:31:22;5.95;;;0.77;;
57605;SDS011;43430;48.204;11.556;2023-02-22T13:37:26;5.68;;;0.63;;
57605;SDS011;43430;48.204;11.556;2023-02-22T13:40:24;1.67;;;0.38;;
57605;SDS011;43430;48.204;11.556;2023-02-22T13:49:11;1.92;;;0.60;;
57605;SDS011;43430;48.204;11.556;2023-02-22T13:51:51;2.33;;;0.73;;
57605;SDS011;43430;48.204;11.556;2023-02-22T13:56:58;2.42;;;0.77;;
57605;SDS011;43430;48.204;11.556;2023-02-22T14:01:59;1.50;;;0.70;;
57605;SDS011;43430;48.204;11.556;2023-02-22T14:06:57;5.30;;;0.80;;
57605;SDS011;43430;48.204;11.556;2023-02-22T14:17:45;2.08;;;0.63;;
57605;SDS011;43430;48.204;11.556;2023-02-22T14:22:44;1.52;;;0.43;;
57605;SDS011;43430;48.204;11.556;2023-02-22T14:28:00;1.98;;;0.30;;
57605;SDS011;43430;48.204;11.556;2023-02-22T14:30:28;1.13;;;0.40;;
57605;SDS011;43430;48.204;11.556;2023-02-22T14:32:56;1.55;;;0.40;;
57605;SDS011;43430;48.204;11.556;2023-02-22T14:35:21;0.93;;;0.30;;
57605;SDS011;43430;48.204;11.556;2023-02-22T14:37:51;1.58;;;0.38;;
57605;SDS011;43430;48.204;11.556;2023-02-22T14:40:29;2.20;;;0.32;;
57605;SDS011;43430;48.204;11.556;2023-02-22T14:43:00;1.00;;;0.40;;
57605;SDS011;43430;48.204;11.556;2023-02-22T14:45:31;4.47;;;0.40;;
57605;SDS011;43430;48.204;11.556;2023-02-22T14:51:04;0.80;;;0.30;;
57605;SDS011;43430;48.204;11.556;2023-02-22T15:02:09;0.90;;;0.40;;
57605;SDS011;43430;48.204;11.556;2023-02-22T15:04:36;0.63;;;0.20;;
57605;SDS011;43430;48.204;11.556;2023-02-22T15:07:24;4.53;;;1.63;;
57605;SDS011;43430;48.204;11.556;2023-02-22T15:09:52;4.63;;;1.60;;
57605;SDS011;43430;48.204;11.556;2023-02-22T15:12:30;3.55;;;1.80;;
57605;SDS011;43430;48.204;11.556;2023-02-22T15:15:12;4.40;;;1.48;;
57605;SDS011;43430;48.204;11.556;2023-02-22T15:17:45;7.60;;;1.42;;
57605;SDS011;43430;48.204;11.556;2023-02-22T15:20:14;4.07;;;1.20;;
57605;SDS011;43430;48.204;11.556;2023-02-22T15:22:40;3.30;;;1.65;;
57605;SDS011;43430;48.204;11.556;2023-02-22T15:25:07;3.42;;;1.20;;
57605;SDS011;43430;48.204;11.556;2023-02-22T15:27:36;3.05;;;1.23;;
57605;SDS011;43430;48.204;11.556;2023-02-22T15:30:14;4.63;;;1.30;;
57605;SDS011;43430;48.204;11.556;2023-02-22T15:32:46;4.70;;;1.73;;
57605;SDS011;43430;48.204;11.556;2023-02-22T15:35:16;2.92;;;1.27;;
57605;SDS011;43430;48.204;11.556;2023-02-22T15:37:56;3.78;;;1.80;;
57605;SDS011;43430;48.204;11.556;2023-02-22T15:40:26;3.75;;;1.35;;
57605;SDS011;43430;48.204;11.556;2023-02-22T15:42:57;4.57;;;1.45;;
57605;SDS011;43430;48.204;11.556;2023-02-22T15:45:26;3.72;;;1.67;;
57605;SDS011;43430;48.204;11.556;2023-02-22T15:47:52;4.70;;;1.38;;
57605;SDS011;43430;48.204;11.556;2023-02-22T15:50:28;5.50;;;1.60;;
57605;SDS011;43430;48.204;11.556;2023-02-22T15:55:36;5.72;;;1.35;;
57605;SDS011;43430;48.204;11.556;2023-02-22T15:58:10;3.78;;;1.17;;
57605;SDS011;43430;48.204;11.556;2023-02-22T16:01:02;4.95;;;1.50;;
57605;SDS011;43430;48.204;11.556;2023-02-22T16:03:34;4.47;;;1.42;;
57605;SDS011;43430;48.204;11.556;2023-02-22T16:06:09;8.85;;;1.48;;
57605;SDS011;43430;48.204;11.556;2023-02-22T16:08:41;4.93;;;1.50;;
57605;SDS011;43430;48.204;11.556;2023-02-22T16:11:15;3.75;;;1.77;;
57605;SDS011;43430;48.204;11.556;2023-02-22T16:13:53;4.43;;;1.70;;
57605;SDS011;43430;48.204;11.556;2023-02-22T16:16:23;3.45;;;1.55;;
57605;SDS011;43430;48.204;11.556;2023-02-22T16:18:52;9.25;;;1.70;;
57605;SDS011;43430;48.204;11.556;2023-02-22T16:21:49;3.53;;;1.27;;
57605;SDS011;43430;48.204;11.556;2023-02-22T16:24:27;6.60;;;1.67;;
57605;SDS011;43430;48.204;11.556;2023-02-22T16:27:02;4.55;;;1.38;;
57605;SDS011;43430;48.204;11.556;2023-02-22T16:29:30;5.57;;;1.58;;
57605;SDS011;43430;48.204;11.556;2023-02-22T16:31:55;4.28;;;1.35;;
57605;SDS011;43430;48.204;11.556;2023-02-22T16:34:20;5.88;;;1.27;;
57605;SDS011;43430;48.204;11.556;2023-02-22T16:36:47;7.05;;;1.58;;
57605;SDS011;43430;48.204;11.556;2023-02-22T16:39:29;4.68;;;1.33;;
57605;SDS011;43430;48.204;11.556;2023-02-22T16:42:04;3.88;;;1.40;;
57605;SDS011;43430;48.204;11.556;2023-02-22T16:44:33;2.40;;;1.25;;
57605;SDS011;43430;48.204;11.556;2023-02-22T16:46:58;6.07;;;1.77;;
57605;SDS011;43430;48.204;11.556;2023-02-22T16:49:24;4.30;;;1.73;;
57605;SDS011;43430;48.204;11.556;2023-02-22T16:51:55;4.32;;;1.33;;
57605;SDS011;43430;48.204;11.556;2023-02-22T16:54:38;5.57;;;2.10;;
57605;SDS011;43430;48.204;11.556;2023-02-22T16:57:09;6.10;;;1.83;;
57605;SDS011;43430;48.204;11.556;2023-02-22T16:59:41;7.30;;;2.30;;
57605;SDS011;43430;48.204;11.556;2023-02-22T17:02:10;6.80;;;1.58;;
57605;SDS011;43430;48.204;11.556;2023-02-22T17:04:39;6.72;;;1.38;;
57605;SDS011;43430;48.204;11.556;2023-02-22T17:07:05;4.03;;;1.20;;
57605;SDS011;43430;48.204;11.556;2023-02-22T17:09:33;4.97;;;1.10;;
57605;SDS011;43430;48.204;11.556;2023-02-22T17:11:59;5.07;;;1.73;;
57605;SDS011;43430;48.204;11.556;2023-02-22T17:14:26;3.72;;;1.30;;
57605;SDS011;43430;48.204;11.556;2023-02-22T17:16:55;4.70;;;1.10;;
57605;SDS011;43430;48.204;11.556;2023-02-22T17:19:21;3.95;;;1.80;;
57605;SDS011;43430;48.204;11.556;2023-02-22T17:21:48;3.78;;;1.48;;
57605;SDS011;43430;48.204;11.556;2023-02-22T17:24:16;4.43;;;1.23;;
57605;SDS011;43430;48.204;11.556;2023-02-22T17:26:44;4.85;;;1.73;;
57605;SDS011;43430;48.204;11.556;2023-02-22T17:29:09;3.63;;;1.30;;
57605;SDS011;43430;48.204;11.556;2023-02-22T17:31:35;4.30;;;1.45;;